sensor_id;sensor_type;location;lat;lon;timestamp;temperature;humidity
20349;DHT22;10332;50.208;18.988;2023-04-01T00:01:01;9.70;85.20
20349;DHT22;10332;50.208;18.988;2023-04-01T00:03:30;9.70;85.40
20349;DHT22;10332;50.208;18.988;2023-04-01T00:06:00;9.70;85.90
20349;DHT22;10332;50.208;18.988;2023-04-01T00:08:28;9.70;86.00
20349;DHT22;10332;50.208;18.988;2023-04-01T00:10:57;9.70;86.70
20349;DHT22;10332;50.208;18.988;2023-04-01T00:13:26;9.70;87.00
20349;DHT22;10332;50.208;18.988;2023-04-01T00:15:55;9.70;87.70
20349;DHT22;10332;50.208;18.988;2023-04-01T00:18:24;9.60;88.70
20349;DHT22;10332;50.208;18.988;2023-04-01T00:20:52;9.60;89.50
20349;DHT22;10332;50.208;18.988;2023-04-01T00:23:20;9.60;89.50
20349;DHT22;10332;50.208;18.988;2023-04-01T00:25:48;9.60;90.10
20349;DHT22;10332;50.208;18.988;2023-04-01T00:28:18;9.50;90.70
20349;DHT22;10332;50.208;18.988;2023-04-01T00:30:47;9.50;91.10
20349;DHT22;10332;50.208;18.988;2023-04-01T00:33:15;9.50;91.60
20349;DHT22;10332;50.208;18.988;2023-04-01T00:35:43;9.40;91.80
20349;DHT22;10332;50.208;18.988;2023-04-01T00:38:12;9.50;92.00
20349;DHT22;10332;50.208;18.988;2023-04-01T00:40:42;9.50;91.70
20349;DHT22;10332;50.208;18.988;2023-04-01T00:43:16;9.50;91.90
20349;DHT22;10332;50.208;18.988;2023-04-01T00:45:48;9.40;92.30
20349;DHT22;10332;50.208;18.988;2023-04-01T00:48:19;9.40;92.60
20349;DHT22;10332;50.208;18.988;2023-04-01T00:50:59;9.30;92.90
20349;DHT22;10332;50.208;18.988;2023-04-01T00:53:33;9.30;92.90
20349;DHT22;10332;50.208;18.988;2023-04-01T00:56:07;9.30;93.20
20349;DHT22;10332;50.208;18.988;2023-04-01T00:58:42;9.30;93.80
20349;DHT22;10332;50.208;18.988;2023-04-01T01:01:15;9.30;94.00
20349;DHT22;10332;50.208;18.988;2023-04-01T01:03:43;9.20;94.20
20349;DHT22;10332;50.208;18.988;2023-04-01T01:12:14;9.30;93.80
20349;DHT22;10332;50.208;18.988;2023-04-01T01:15:08;9.20;94.00
20349;DHT22;10332;50.208;18.988;2023-04-01T01:27:00;9.30;94.00
20349;DHT22;10332;50.208;18.988;2023-04-01T01:32:53;9.20;94.50
20349;DHT22;10332;50.208;18.988;2023-04-01T01:35:35;9.20;94.60
20349;DHT22;10332;50.208;18.988;2023-04-01T01:38:11;9.20;95.00
20349;DHT22;10332;50.208;18.988;2023-04-01T01:40:47;9.20;95.30
20349;DHT22;10332;50.208;18.988;2023-04-01T01:43:24;9.20;95.00
20349;DHT22;10332;50.208;18.988;2023-04-01T01:45:58;9.20;94.90
20349;DHT22;10332;50.208;18.988;2023-04-01T01:48:31;9.20;95.30
20349;DHT22;10332;50.208;18.988;2023-04-01T01:51:00;9.20;95.00
20349;DHT22;10332;50.208;18.988;2023-04-01T01:53:28;9.20;95.20
20349;DHT22;10332;50.208;18.988;2023-04-01T01:55:55;9.20;95.20
20349;DHT22;10332;50.208;18.988;2023-04-01T01:58:32;9.10;95.70
20349;DHT22;10332;50.208;18.988;2023-04-01T02:01:29;9.10;95.90
20349;DHT22;10332;50.208;18.988;2023-04-01T02:04:01;9.10;96.20
20349;DHT22;10332;50.208;18.988;2023-04-01T02:06:34;9.00;96.60
20349;DHT22;10332;50.208;18.988;2023-04-01T02:09:06;9.00;96.70
20349;DHT22;10332;50.208;18.988;2023-04-01T02:11:47;9.00;96.80
20349;DHT22;10332;50.208;18.988;2023-04-01T02:14:28;9.00;97.40
20349;DHT22;10332;50.208;18.988;2023-04-01T02:17:22;8.90;97.70
20349;DHT22;10332;50.208;18.988;2023-04-01T02:20:00;8.90;97.30
20349;DHT22;10332;50.208;18.988;2023-04-01T02:22:35;9.00;97.40
20349;DHT22;10332;50.208;18.988;2023-04-01T02:25:09;8.90;97.80
20349;DHT22;10332;50.208;18.988;2023-04-01T02:27:42;9.00;97.70
20349;DHT22;10332;50.208;18.988;2023-04-01T02:30:14;9.00;97.50
20349;DHT22;10332;50.208;18.988;2023-04-01T02:32:42;9.00;97.90
20349;DHT22;10332;50.208;18.988;2023-04-01T02:35:14;9.00;98.00
20349;DHT22;10332;50.208;18.988;2023-04-01T02:37:45;9.00;97.40
20349;DHT22;10332;50.208;18.988;2023-04-01T02:40:17;9.10;97.10
20349;DHT22;10332;50.208;18.988;2023-04-01T02:42:45;9.00;97.50
20349;DHT22;10332;50.208;18.988;2023-04-01T02:45:13;9.00;97.70
20349;DHT22;10332;50.208;18.988;2023-04-01T02:47:41;9.00;97.80
20349;DHT22;10332;50.208;18.988;2023-04-01T02:50:09;9.10;97.40
20349;DHT22;10332;50.208;18.988;2023-04-01T02:52:37;9.10;97.20
20349;DHT22;10332;50.208;18.988;2023-04-01T02:55:06;9.10;97.00
20349;DHT22;10332;50.208;18.988;2023-04-01T02:57:34;9.10;96.90
20349;DHT22;10332;50.208;18.988;2023-04-01T03:00:03;9.10;97.00
20349;DHT22;10332;50.208;18.988;2023-04-01T03:02:30;9.10;97.10
20349;DHT22;10332;50.208;18.988;2023-04-01T03:04:58;9.10;97.30
20349;DHT22;10332;50.208;18.988;2023-04-01T03:07:26;9.10;97.00
20349;DHT22;10332;50.208;18.988;2023-04-01T03:09:53;9.10;97.20
20349;DHT22;10332;50.208;18.988;2023-04-01T03:12:20;9.10;97.30
20349;DHT22;10332;50.208;18.988;2023-04-01T03:14:48;9.10;97.10
20349;DHT22;10332;50.208;18.988;2023-04-01T03:17:15;9.20;96.60
20349;DHT22;10332;50.208;18.988;2023-04-01T03:19:43;9.20;96.50
20349;DHT22;10332;50.208;18.988;2023-04-01T03:22:11;9.10;97.20
20349;DHT22;10332;50.208;18.988;2023-04-01T03:24:38;9.20;97.50
20349;DHT22;10332;50.208;18.988;2023-04-01T03:27:06;9.20;97.30
20349;DHT22;10332;50.208;18.988;2023-04-01T03:29:33;9.20;97.40
20349;DHT22;10332;50.208;18.988;2023-04-01T03:32:01;9.20;97.40
20349;DHT22;10332;50.208;18.988;2023-04-01T03:34:28;9.20;97.60
20349;DHT22;10332;50.208;18.988;2023-04-01T03:36:56;9.20;97.70
20349;DHT22;10332;50.208;18.988;2023-04-01T03:39:24;9.20;97.50
20349;DHT22;10332;50.208;18.988;2023-04-01T03:41:52;9.20;97.20
20349;DHT22;10332;50.208;18.988;2023-04-01T03:44:19;9.20;97.80
20349;DHT22;10332;50.208;18.988;2023-04-01T03:46:47;9.30;97.90
20349;DHT22;10332;50.208;18.988;2023-04-01T03:49:14;9.20;97.60
20349;DHT22;10332;50.208;18.988;2023-04-01T03:51:43;9.20;97.70
20349;DHT22;10332;50.208;18.988;2023-04-01T03:54:11;9.20;98.40
20349;DHT22;10332;50.208;18.988;2023-04-01T03:56:38;9.20;99.00
20349;DHT22;10332;50.208;18.988;2023-04-01T03:59:07;9.20;99.40
20349;DHT22;10332;50.208;18.988;2023-04-01T04:01:35;9.20;99.70
20349;DHT22;10332;50.208;18.988;2023-04-01T04:04:03;9.20;99.60
20349;DHT22;10332;50.208;18.988;2023-04-01T04:06:32;9.20;99.40
20349;DHT22;10332;50.208;18.988;2023-04-01T04:09:00;9.20;99.10
20349;DHT22;10332;50.208;18.988;2023-04-01T04:11:27;9.20;98.30
20349;DHT22;10332;50.208;18.988;2023-04-01T04:13:58;9.20;98.40
20349;DHT22;10332;50.208;18.988;2023-04-01T04:16:26;9.20;98.90
20349;DHT22;10332;50.208;18.988;2023-04-01T04:18:53;9.20;98.10
20349;DHT22;10332;50.208;18.988;2023-04-01T04:21:21;9.20;98.40
20349;DHT22;10332;50.208;18.988;2023-04-01T04:23:49;9.20;98.20
20349;DHT22;10332;50.208;18.988;2023-04-01T04:26:17;9.20;98.10
20349;DHT22;10332;50.208;18.988;2023-04-01T04:28:45;9.20;98.20
20349;DHT22;10332;50.208;18.988;2023-04-01T04:31:18;9.20;98.40
20349;DHT22;10332;50.208;18.988;2023-04-01T04:33:48;9.20;98.60
20349;DHT22;10332;50.208;18.988;2023-04-01T04:36:15;9.20;98.70
20349;DHT22;10332;50.208;18.988;2023-04-01T04:38:43;9.30;98.20
20349;DHT22;10332;50.208;18.988;2023-04-01T04:41:14;9.40;98.00
20349;DHT22;10332;50.208;18.988;2023-04-01T04:43:52;9.40;96.70
20349;DHT22;10332;50.208;18.988;2023-04-01T04:46:22;9.40;96.90
20349;DHT22;10332;50.208;18.988;2023-04-01T04:48:50;9.40;96.80
20349;DHT22;10332;50.208;18.988;2023-04-01T04:51:19;9.40;97.00
20349;DHT22;10332;50.208;18.988;2023-04-01T04:53:49;9.40;96.60
20349;DHT22;10332;50.208;18.988;2023-04-01T04:56:22;9.50;96.40
20349;DHT22;10332;50.208;18.988;2023-04-01T04:58:49;9.50;95.90
20349;DHT22;10332;50.208;18.988;2023-04-01T05:01:17;9.60;95.40
20349;DHT22;10332;50.208;18.988;2023-04-01T05:03:46;9.60;94.40
20349;DHT22;10332;50.208;18.988;2023-04-01T05:06:15;9.60;94.00
20349;DHT22;10332;50.208;18.988;2023-04-01T05:08:45;9.60;94.30
20349;DHT22;10332;50.208;18.988;2023-04-01T05:11:15;9.70;93.80
20349;DHT22;10332;50.208;18.988;2023-04-01T05:13:45;9.80;93.40
20349;DHT22;10332;50.208;18.988;2023-04-01T05:16:18;9.80;92.60
20349;DHT22;10332;50.208;18.988;2023-04-01T05:18:47;9.90;92.20
20349;DHT22;10332;50.208;18.988;2023-04-01T05:21:15;10.00;92.00
20349;DHT22;10332;50.208;18.988;2023-04-01T05:23:43;10.10;90.70
20349;DHT22;10332;50.208;18.988;2023-04-01T05:26:13;10.30;89.00
20349;DHT22;10332;50.208;18.988;2023-04-01T05:28:42;10.40;87.30
20349;DHT22;10332;50.208;18.988;2023-04-01T05:31:09;10.60;84.90
20349;DHT22;10332;50.208;18.988;2023-04-01T05:33:37;10.70;83.00
20349;DHT22;10332;50.208;18.988;2023-04-01T05:36:11;10.80;81.70
20349;DHT22;10332;50.208;18.988;2023-04-01T05:38:41;10.80;79.30
20349;DHT22;10332;50.208;18.988;2023-04-01T05:41:09;10.80;79.80
20349;DHT22;10332;50.208;18.988;2023-04-01T05:43:38;10.70;80.40
20349;DHT22;10332;50.208;18.988;2023-04-01T05:46:07;10.60;81.80
20349;DHT22;10332;50.208;18.988;2023-04-01T05:48:35;10.50;82.40
20349;DHT22;10332;50.208;18.988;2023-04-01T05:51:03;10.40;84.50
20349;DHT22;10332;50.208;18.988;2023-04-01T05:53:31;10.30;86.40
20349;DHT22;10332;50.208;18.988;2023-04-01T05:56:02;10.20;87.90
20349;DHT22;10332;50.208;18.988;2023-04-01T05:58:31;10.20;87.90
20349;DHT22;10332;50.208;18.988;2023-04-01T06:01:09;10.20;89.20
20349;DHT22;10332;50.208;18.988;2023-04-01T06:03:42;10.20;89.20
20349;DHT22;10332;50.208;18.988;2023-04-01T06:06:15;10.20;89.70
20349;DHT22;10332;50.208;18.988;2023-04-01T06:08:47;10.10;90.00
20349;DHT22;10332;50.208;18.988;2023-04-01T06:11:42;10.10;90.20
20349;DHT22;10332;50.208;18.988;2023-04-01T06:41:01;10.40;89.20
20349;DHT22;10332;50.208;18.988;2023-04-01T06:44:07;10.40;89.70
20349;DHT22;10332;50.208;18.988;2023-04-01T06:50:34;11.00;84.30
20349;DHT22;10332;50.208;18.988;2023-04-01T06:53:13;11.20;80.20
20349;DHT22;10332;50.208;18.988;2023-04-01T06:55:55;11.20;79.30
20349;DHT22;10332;50.208;18.988;2023-04-01T06:58:41;11.10;79.90
20349;DHT22;10332;50.208;18.988;2023-04-01T07:01:37;11.10;80.20
20349;DHT22;10332;50.208;18.988;2023-04-01T07:04:16;11.00;82.30
20349;DHT22;10332;50.208;18.988;2023-04-01T07:09:52;11.10;82.50
20349;DHT22;10332;50.208;18.988;2023-04-01T07:12:53;11.20;82.20
20349;DHT22;10332;50.208;18.988;2023-04-01T07:15:35;11.30;79.40
20349;DHT22;10332;50.208;18.988;2023-04-01T07:18:24;11.40;78.90
20349;DHT22;10332;50.208;18.988;2023-04-01T07:21:00;11.30;80.90
20349;DHT22;10332;50.208;18.988;2023-04-01T07:23:32;11.20;82.80
20349;DHT22;10332;50.208;18.988;2023-04-01T07:26:26;11.20;83.20
20349;DHT22;10332;50.208;18.988;2023-04-01T07:28:54;11.30;81.30
20349;DHT22;10332;50.208;18.988;2023-04-01T07:40:01;11.60;75.20
20349;DHT22;10332;50.208;18.988;2023-04-01T07:46:14;11.50;78.40
20349;DHT22;10332;50.208;18.988;2023-04-01T07:54:37;11.70;80.70
20349;DHT22;10332;50.208;18.988;2023-04-01T08:00:23;11.80;80.50
20349;DHT22;10332;50.208;18.988;2023-04-01T08:05:55;12.00;79.30
20349;DHT22;10332;50.208;18.988;2023-04-01T08:22:14;11.80;83.10
20349;DHT22;10332;50.208;18.988;2023-04-01T08:24:48;12.10;77.30
20349;DHT22;10332;50.208;18.988;2023-04-01T08:27:31;12.50;72.80
20349;DHT22;10332;50.208;18.988;2023-04-01T08:30:24;12.90;67.50
20349;DHT22;10332;50.208;18.988;2023-04-01T08:35:46;13.30;62.80
20349;DHT22;10332;50.208;18.988;2023-04-01T08:38:33;13.60;59.20
20349;DHT22;10332;50.208;18.988;2023-04-01T09:02:12;13.60;67.70
20349;DHT22;10332;50.208;18.988;2023-04-01T09:22:59;17.10;40.00
20349;DHT22;10332;50.208;18.988;2023-04-01T09:31:32;20.80;1.00
20349;DHT22;10332;50.208;18.988;2023-04-01T09:34:30;19.70;1.00
20349;DHT22;10332;50.208;18.988;2023-04-01T09:37:37;18.00;8.60
20349;DHT22;10332;50.208;18.988;2023-04-01T09:46:10;14.70;49.80
20349;DHT22;10332;50.208;18.988;2023-04-01T09:51:40;16.10;40.10
20349;DHT22;10332;50.208;18.988;2023-04-01T10:19:49;17.00;29.70
20349;DHT22;10332;50.208;18.988;2023-04-01T10:25:36;15.60;32.90
20349;DHT22;10332;50.208;18.988;2023-04-01T10:47:07;14.40;62.10
20349;DHT22;10332;50.208;18.988;2023-04-01T10:59:04;31.80;1.00
20349;DHT22;10332;50.208;18.988;2023-04-01T11:17:03;23.10;1.00
20349;DHT22;10332;50.208;18.988;2023-04-01T11:29:12;30.60;1.00
20349;DHT22;10332;50.208;18.988;2023-04-01T11:37:59;24.00;1.00
20349;DHT22;10332;50.208;18.988;2023-04-01T11:40:55;22.90;1.00
20349;DHT22;10332;50.208;18.988;2023-04-01T11:46:21;20.10;1.00
20349;DHT22;10332;50.208;18.988;2023-04-01T11:55:28;16.80;17.40
20349;DHT22;10332;50.208;18.988;2023-04-01T12:04:12;17.50;36.50
20349;DHT22;10332;50.208;18.988;2023-04-01T12:06:49;20.40;14.20
20349;DHT22;10332;50.208;18.988;2023-04-01T12:13:49;24.50;1.00
20349;DHT22;10332;50.208;18.988;2023-04-01T12:31:13;16.70;33.80
20349;DHT22;10332;50.208;18.988;2023-04-01T12:37:18;17.50;31.70
20349;DHT22;10332;50.208;18.988;2023-04-01T12:52:11;20.70;1.00
20349;DHT22;10332;50.208;18.988;2023-04-01T12:55:15;19.20;1.00
20349;DHT22;10332;50.208;18.988;2023-04-01T13:03:43;16.20;35.70
20349;DHT22;10332;50.208;18.988;2023-04-01T13:15:24;15.60;31.20
20349;DHT22;10332;50.208;18.988;2023-04-01T13:18:28;15.30;32.60
20349;DHT22;10332;50.208;18.988;2023-04-01T13:27:18;14.70;39.20
20349;DHT22;10332;50.208;18.988;2023-04-01T13:44:48;14.50;37.50
20349;DHT22;10332;50.208;18.988;2023-04-01T13:47:24;14.50;40.30
20349;DHT22;10332;50.208;18.988;2023-04-01T13:59:05;14.10;47.70
20349;DHT22;10332;50.208;18.988;2023-04-01T14:08:09;13.90;54.10
20349;DHT22;10332;50.208;18.988;2023-04-01T14:11:02;13.80;54.90
20349;DHT22;10332;50.208;18.988;2023-04-01T14:29:10;13.60;55.90
20349;DHT22;10332;50.208;18.988;2023-04-01T14:32:06;13.50;56.10
20349;DHT22;10332;50.208;18.988;2023-04-01T14:35:27;13.40;58.80
20349;DHT22;10332;50.208;18.988;2023-04-01T14:50:24;12.80;72.70
20349;DHT22;10332;50.208;18.988;2023-04-01T14:55:48;12.50;76.20
20349;DHT22;10332;50.208;18.988;2023-04-01T14:58:23;12.40;79.00
20349;DHT22;10332;50.208;18.988;2023-04-01T15:06:49;12.70;78.60
20349;DHT22;10332;50.208;18.988;2023-04-01T15:09:58;12.90;77.50
20349;DHT22;10332;50.208;18.988;2023-04-01T15:34:32;15.20;53.40
20349;DHT22;10332;50.208;18.988;2023-04-01T15:40:18;14.90;53.10
20349;DHT22;10332;50.208;18.988;2023-04-01T15:46:20;14.50;55.80
20349;DHT22;10332;50.208;18.988;2023-04-01T15:49:09;14.30;57.10
20349;DHT22;10332;50.208;18.988;2023-04-01T15:55:16;13.90;61.10
20349;DHT22;10332;50.208;18.988;2023-04-01T16:01:59;13.60;68.00
20349;DHT22;10332;50.208;18.988;2023-04-01T16:05:00;13.50;66.70
20349;DHT22;10332;50.208;18.988;2023-04-01T16:19:18;12.50;70.90
20349;DHT22;10332;50.208;18.988;2023-04-01T16:22:25;12.40;72.80
20349;DHT22;10332;50.208;18.988;2023-04-01T16:25:25;12.30;73.90
20349;DHT22;10332;50.208;18.988;2023-04-01T16:30:59;12.20;76.30
20349;DHT22;10332;50.208;18.988;2023-04-01T16:36:28;12.10;77.80
20349;DHT22;10332;50.208;18.988;2023-04-01T16:44:54;12.00;79.30
20349;DHT22;10332;50.208;18.988;2023-04-01T16:47:45;12.00;80.90
20349;DHT22;10332;50.208;18.988;2023-04-01T16:50:20;12.00;82.10
20349;DHT22;10332;50.208;18.988;2023-04-01T16:53:10;12.00;83.30
20349;DHT22;10332;50.208;18.988;2023-04-01T16:55:54;12.00;84.00
20349;DHT22;10332;50.208;18.988;2023-04-01T16:58:41;12.00;84.90
20349;DHT22;10332;50.208;18.988;2023-04-01T17:01:49;11.90;85.80
20349;DHT22;10332;50.208;18.988;2023-04-01T17:04:21;11.90;86.00
20349;DHT22;10332;50.208;18.988;2023-04-01T17:12:37;11.70;89.40
20349;DHT22;10332;50.208;18.988;2023-04-01T17:15:26;11.50;90.00
20349;DHT22;10332;50.208;18.988;2023-04-01T17:18:22;11.50;90.30
20349;DHT22;10332;50.208;18.988;2023-04-01T17:21:15;11.30;91.40
20349;DHT22;10332;50.208;18.988;2023-04-01T17:24:29;11.20;93.30
20349;DHT22;10332;50.208;18.988;2023-04-01T17:30:15;11.00;97.20
20349;DHT22;10332;50.208;18.988;2023-04-01T17:35:59;11.00;99.90
20349;DHT22;10332;50.208;18.988;2023-04-01T17:39:02;10.90;99.90
20349;DHT22;10332;50.208;18.988;2023-04-01T17:44:43;10.80;99.90
20349;DHT22;10332;50.208;18.988;2023-04-01T17:58:48;10.70;99.90
20349;DHT22;10332;50.208;18.988;2023-04-01T18:01:53;10.70;99.90
20349;DHT22;10332;50.208;18.988;2023-04-01T18:08:17;10.60;99.90
20349;DHT22;10332;50.208;18.988;2023-04-01T18:25:49;10.50;99.90
20349;DHT22;10332;50.208;18.988;2023-04-01T18:28:39;10.40;99.90
20349;DHT22;10332;50.208;18.988;2023-04-01T18:31:16;10.40;99.90
20349;DHT22;10332;50.208;18.988;2023-04-01T18:34:07;10.40;99.90
20349;DHT22;10332;50.208;18.988;2023-04-01T18:36:53;10.30;99.90
20349;DHT22;10332;50.208;18.988;2023-04-01T18:39:42;10.30;99.90
20349;DHT22;10332;50.208;18.988;2023-04-01T18:42:46;10.30;99.90
20349;DHT22;10332;50.208;18.988;2023-04-01T18:48:52;10.20;99.90
20349;DHT22;10332;50.208;18.988;2023-04-01T18:51:52;10.10;99.90
20349;DHT22;10332;50.208;18.988;2023-04-01T18:54:27;10.10;99.90
20349;DHT22;10332;50.208;18.988;2023-04-01T18:59:53;10.00;99.90
20349;DHT22;10332;50.208;18.988;2023-04-01T19:02:43;10.00;99.90
20349;DHT22;10332;50.208;18.988;2023-04-01T19:05:30;10.00;99.90
20349;DHT22;10332;50.208;18.988;2023-04-01T19:08:33;10.10;99.90
20349;DHT22;10332;50.208;18.988;2023-04-01T19:11:33;10.20;99.90
20349;DHT22;10332;50.208;18.988;2023-04-01T19:17:43;10.30;99.90
20349;DHT22;10332;50.208;18.988;2023-04-01T19:26:27;10.30;99.90
20349;DHT22;10332;50.208;18.988;2023-04-01T19:35:22;10.30;99.90
20349;DHT22;10332;50.208;18.988;2023-04-01T19:41:36;10.40;99.90
20349;DHT22;10332;50.208;18.988;2023-04-01T19:47:24;10.40;99.90
20349;DHT22;10332;50.208;18.988;2023-04-01T19:52:59;10.40;99.90
20349;DHT22;10332;50.208;18.988;2023-04-01T19:55:47;10.40;99.90
20349;DHT22;10332;50.208;18.988;2023-04-01T20:04:26;10.30;99.90
20349;DHT22;10332;50.208;18.988;2023-04-01T20:07:30;10.30;99.90
20349;DHT22;10332;50.208;18.988;2023-04-01T20:10:18;10.30;99.90
20349;DHT22;10332;50.208;18.988;2023-04-01T20:13:12;10.30;99.90
20349;DHT22;10332;50.208;18.988;2023-04-01T20:16:05;10.30;99.90
20349;DHT22;10332;50.208;18.988;2023-04-01T20:18:49;10.30;99.90
20349;DHT22;10332;50.208;18.988;2023-04-01T20:24:25;10.40;99.90
20349;DHT22;10332;50.208;18.988;2023-04-01T20:27:09;10.40;99.90
20349;DHT22;10332;50.208;18.988;2023-04-01T20:36:31;10.40;99.90
20349;DHT22;10332;50.208;18.988;2023-04-01T20:46:07;10.40;99.90
20349;DHT22;10332;50.208;18.988;2023-04-01T20:54:59;10.40;99.90
20349;DHT22;10332;50.208;18.988;2023-04-01T20:57:51;10.30;99.90
20349;DHT22;10332;50.208;18.988;2023-04-01T21:00:41;10.30;99.90
20349;DHT22;10332;50.208;18.988;2023-04-01T21:06:28;10.20;99.90
20349;DHT22;10332;50.208;18.988;2023-04-01T21:12:30;10.10;99.90
20349;DHT22;10332;50.208;18.988;2023-04-01T21:21:07;10.10;99.90
20349;DHT22;10332;50.208;18.988;2023-04-01T21:32:27;10.20;99.90
20349;DHT22;10332;50.208;18.988;2023-04-01T21:39:06;10.30;99.90
20349;DHT22;10332;50.208;18.988;2023-04-01T21:45:03;10.20;99.90
20349;DHT22;10332;50.208;18.988;2023-04-01T21:59:31;10.30;99.90
20349;DHT22;10332;50.208;18.988;2023-04-01T22:08:46;10.30;99.90
20349;DHT22;10332;50.208;18.988;2023-04-01T22:17:56;10.40;99.90
20349;DHT22;10332;50.208;18.988;2023-04-01T22:20:38;10.40;99.90
20349;DHT22;10332;50.208;18.988;2023-04-01T22:26:44;10.30;99.90
20349;DHT22;10332;50.208;18.988;2023-04-01T22:29:27;10.30;99.90
20349;DHT22;10332;50.208;18.988;2023-04-01T22:32:18;10.30;99.90
20349;DHT22;10332;50.208;18.988;2023-04-01T22:43:42;10.30;99.90
20349;DHT22;10332;50.208;18.988;2023-04-01T22:46:36;10.30;99.90
20349;DHT22;10332;50.208;18.988;2023-04-01T22:49:30;10.20;99.90
20349;DHT22;10332;50.208;18.988;2023-04-01T22:52:18;10.20;99.90
20349;DHT22;10332;50.208;18.988;2023-04-01T22:55:00;10.20;99.90
20349;DHT22;10332;50.208;18.988;2023-04-01T22:57:47;10.10;99.90
20349;DHT22;10332;50.208;18.988;2023-04-01T23:00:42;10.20;99.90
20349;DHT22;10332;50.208;18.988;2023-04-01T23:06:01;10.20;99.90
20349;DHT22;10332;50.208;18.988;2023-04-01T23:08:53;10.20;99.90
20349;DHT22;10332;50.208;18.988;2023-04-01T23:17:01;10.30;99.90
20349;DHT22;10332;50.208;18.988;2023-04-01T23:29:17;10.30;99.90
20349;DHT22;10332;50.208;18.988;2023-04-01T23:31:49;10.40;99.90
20349;DHT22;10332;50.208;18.988;2023-04-01T23:34:27;10.40;99.90
20349;DHT22;10332;50.208;18.988;2023-04-01T23:37:08;10.40;99.90
20349;DHT22;10332;50.208;18.988;2023-04-01T23:39:41;10.50;99.90
20349;DHT22;10332;50.208;18.988;2023-04-01T23:42:27;10.40;99.90
20349;DHT22;10332;50.208;18.988;2023-04-01T23:45:13;10.30;99.90
20349;DHT22;10332;50.208;18.988;2023-04-01T23:47:49;10.30;99.90
20349;DHT22;10332;50.208;18.988;2023-04-01T23:50:22;10.20;99.90
20349;DHT22;10332;50.208;18.988;2023-04-01T23:53:01;10.20;99.90
20349;DHT22;10332;50.208;18.988;2023-04-01T23:55:32;10.20;99.90
